createdAt,value
2019-02-24T00:00:41.603Z,22.30
2019-02-24T00:03:10.017Z,22.80
2019-02-24T00:05:38.692Z,22.90
2019-02-24T00:08:07.134Z,23.60
2019-02-24T00:10:35.705Z,23.20
2019-02-24T00:13:04.366Z,23.00
2019-02-24T00:15:32.774Z,23.00
2019-02-24T00:18:01.435Z,23.20
2019-02-24T00:20:30.085Z,23.40
2019-02-24T00:22:58.742Z,23.20
2019-02-24T00:25:27.184Z,22.90
2019-02-24T00:27:55.601Z,23.00
2019-02-24T00:30:24.012Z,22.80
2019-02-24T00:32:52.428Z,22.60
2019-02-24T00:35:21.083Z,22.70
2019-02-24T00:37:49.516Z,22.90
2019-02-24T00:40:17.953Z,22.90
2019-02-24T00:42:46.358Z,23.40
2019-02-24T00:45:14.780Z,23.10
2019-02-24T00:47:43.188Z,23.10
2019-02-24T00:50:11.602Z,23.20
2019-02-24T00:52:40.017Z,23.00
2019-02-24T00:55:08.502Z,23.10
2019-02-24T00:57:37.166Z,23.10
2019-02-24T01:00:10.827Z,23.00
2019-02-24T01:02:39.236Z,22.80
2019-02-24T01:05:08.979Z,22.90
2019-02-24T01:07:37.381Z,22.80
2019-02-24T01:10:08.758Z,23.40
2019-02-24T01:12:37.165Z,23.30
2019-02-24T01:15:08.753Z,23.30
2019-02-24T01:17:37.229Z,23.50
2019-02-24T01:20:09.414Z,23.60
2019-02-24T01:22:37.824Z,23.60
2019-02-24T01:25:06.467Z,24.00
2019-02-24T01:27:34.947Z,23.90
2019-02-24T01:30:03.426Z,24.00
2019-02-24T01:32:32.126Z,23.80
2019-02-24T01:35:00.533Z,23.50
2019-02-24T01:37:28.939Z,23.80
2019-02-24T01:39:57.365Z,23.90
2019-02-24T01:42:26.018Z,24.00
2019-02-24T01:44:54.458Z,23.90
2019-02-24T01:47:22.865Z,24.30
2019-02-24T01:49:51.293Z,24.60
2019-02-24T01:52:19.702Z,24.60
2019-02-24T01:54:48.374Z,24.80
2019-02-24T01:57:16.783Z,25.00
2019-02-24T01:59:45.418Z,24.90
2019-02-24T02:02:13.891Z,24.90
2019-02-24T02:04:42.544Z,25.10
2019-02-24T02:07:10.989Z,25.30
2019-02-24T02:09:39.441Z,25.40
2019-02-24T02:12:08.096Z,25.20
2019-02-24T02:14:36.509Z,25.10
2019-02-24T02:17:05.161Z,25.30
2019-02-24T02:19:33.578Z,25.50
2019-02-24T02:22:01.985Z,25.60
2019-02-24T02:24:30.679Z,25.90
2019-02-24T02:26:59.085Z,25.80
2019-02-24T02:29:27.833Z,25.60
2019-02-24T02:31:56.246Z,25.90
2019-02-24T02:34:24.708Z,25.90
2019-02-24T02:36:53.109Z,26.10
2019-02-24T02:39:21.805Z,26.20
2019-02-24T02:41:50.496Z,26.10
2019-02-24T02:44:18.952Z,26.40
2019-02-24T02:46:47.974Z,27.00
2019-02-24T02:49:16.618Z,27.00
2019-02-24T02:51:45.303Z,27.10
2019-02-24T02:54:13.709Z,27.00
2019-02-24T02:56:42.554Z,26.80
2019-02-24T02:59:10.962Z,26.70
2019-02-24T03:01:39.394Z,26.90
2019-02-24T03:04:07.801Z,26.80
2019-02-24T03:06:40.578Z,27.00
2019-02-24T03:09:10.530Z,27.00
2019-02-24T03:11:39.231Z,27.10
2019-02-24T03:14:07.688Z,27.20
2019-02-24T03:16:36.315Z,26.80
2019-02-24T03:19:04.768Z,26.80
2019-02-24T03:21:33.186Z,26.80
2019-02-24T03:24:01.602Z,27.10
2019-02-24T03:26:30.039Z,27.50
2019-02-24T03:29:04.124Z,27.40
2019-02-24T03:31:28.595Z,27.20
2019-02-24T03:33:57.280Z,27.10
2019-02-24T03:36:25.708Z,27.10
2019-02-24T03:38:54.123Z,27.00
2019-02-24T03:41:22.542Z,26.90
2019-02-24T03:43:50.951Z,27.10
2019-02-24T03:46:19.383Z,27.20
2019-02-24T03:48:47.790Z,27.30
2019-02-24T03:51:16.211Z,27.60
2019-02-24T03:53:44.626Z,27.80
2019-02-24T03:56:13.258Z,28.00
2019-02-24T03:58:41.845Z,28.10
2019-02-24T04:01:10.271Z,27.80
2019-02-24T04:03:39.005Z,28.00
2019-02-24T04:06:07.423Z,28.20
2019-02-24T04:08:35.837Z,28.10
2019-02-24T04:11:04.262Z,28.50
2019-02-24T04:13:32.668Z,28.50
2019-02-24T04:16:01.078Z,28.90
2019-02-24T04:18:29.505Z,28.70
2019-02-24T04:20:57.914Z,28.50
2019-02-24T04:23:26.352Z,29.00
2019-02-24T04:25:54.761Z,28.80
2019-02-24T04:28:23.186Z,28.70
2019-02-24T04:30:51.600Z,29.00
2019-02-24T04:33:20.035Z,28.80
2019-02-24T04:35:48.441Z,29.10
2019-02-24T04:38:17.115Z,29.40
2019-02-24T04:40:45.535Z,29.70
2019-02-24T04:43:13.966Z,29.80
2019-02-24T04:45:42.416Z,29.80
2019-02-24T04:48:10.878Z,29.70
2019-02-24T04:50:39.294Z,30.00
2019-02-24T04:53:07.971Z,30.00
2019-02-24T04:55:36.373Z,29.90
2019-02-24T04:58:04.811Z,30.00
2019-02-24T05:00:33.434Z,30.00
2019-02-24T05:03:01.918Z,30.30
2019-02-24T05:05:30.694Z,30.80
2019-02-24T05:07:59.118Z,31.00
2019-02-24T05:10:27.531Z,31.20
2019-02-24T05:12:56.040Z,31.60
2019-02-24T05:15:24.458Z,32.10
2019-02-24T05:17:52.894Z,32.60
2019-02-24T05:20:21.561Z,32.80
2019-02-24T05:22:49.971Z,33.00
2019-02-24T05:25:18.382Z,33.50
2019-02-24T05:27:46.815Z,33.80
2019-02-24T05:30:15.220Z,34.00
2019-02-24T05:32:43.893Z,34.40
2019-02-24T05:35:12.298Z,34.50
2019-02-24T05:37:40.718Z,34.40
2019-02-24T05:40:09.132Z,34.80
2019-02-24T05:42:37.553Z,35.60
2019-02-24T05:45:06.403Z,35.50
2019-02-24T05:47:34.867Z,35.70
2019-02-24T05:50:03.355Z,35.70
2019-02-24T05:52:32.001Z,35.80
2019-02-24T05:55:00.455Z,36.70
2019-02-24T05:57:28.877Z,37.10
2019-02-24T05:59:57.534Z,37.50
2019-02-24T06:02:25.943Z,37.80
2019-02-24T06:04:54.361Z,37.60
2019-02-24T06:07:22.786Z,37.90
2019-02-24T06:09:51.210Z,38.30
2019-02-24T06:12:19.625Z,39.20
2019-02-24T06:14:48.050Z,40.30
2019-02-24T06:17:16.538Z,41.20
2019-02-24T06:19:44.971Z,41.90
2019-02-24T06:22:13.386Z,42.00
2019-02-24T06:24:41.810Z,41.50
2019-02-24T06:27:10.222Z,41.90
2019-02-24T06:29:38.658Z,42.50
2019-02-24T06:32:07.310Z,42.60
2019-02-24T06:34:35.734Z,43.10
2019-02-24T06:37:04.151Z,43.20
2019-02-24T06:39:32.590Z,43.80
2019-02-24T06:42:00.997Z,44.30
2019-02-24T06:44:29.687Z,44.10
2019-02-24T06:46:58.351Z,44.70
2019-02-24T06:49:26.871Z,44.90
2019-02-24T06:51:55.294Z,44.80
2019-02-24T06:54:23.717Z,44.60
2019-02-24T06:56:52.133Z,44.50
2019-02-24T06:59:20.562Z,44.10
2019-02-24T07:01:48.964Z,43.80
2019-02-24T07:04:17.402Z,43.20
2019-02-24T07:06:46.079Z,42.80
2019-02-24T07:09:14.488Z,43.10
2019-02-24T07:11:42.911Z,42.70
2019-02-24T07:14:12.247Z,43.00
2019-02-24T07:16:40.658Z,42.80
2019-02-24T07:19:09.329Z,42.60
2019-02-24T07:21:37.741Z,41.80
2019-02-24T07:24:06.164Z,41.70
2019-02-24T07:26:34.574Z,41.40
2019-02-24T07:29:02.993Z,40.80
2019-02-24T07:31:31.406Z,40.30
2019-02-24T07:34:00.098Z,39.50
2019-02-24T07:36:28.501Z,39.00
2019-02-24T07:38:56.909Z,38.90
2019-02-24T07:41:25.330Z,39.30
2019-02-24T07:43:53.736Z,39.40
2019-02-24T07:46:22.152Z,38.10
2019-02-24T07:48:50.556Z,38.20
2019-02-24T07:51:18.981Z,37.60
2019-02-24T07:53:47.394Z,37.30
2019-02-24T07:56:15.822Z,37.50
2019-02-24T07:58:44.489Z,37.30
2019-02-24T08:01:12.910Z,36.70
2019-02-24T08:03:41.318Z,36.00
2019-02-24T08:06:09.740Z,35.40
2019-02-24T08:08:38.145Z,35.00
2019-02-24T08:11:06.814Z,35.10
2019-02-24T08:13:35.232Z,35.10
2019-02-24T08:16:03.890Z,34.40
2019-02-24T08:18:32.310Z,35.10
2019-02-24T08:21:01.080Z,34.80
2019-02-24T08:23:29.583Z,34.40
2019-02-24T08:25:58.216Z,34.40
2019-02-24T08:28:26.918Z,33.00
2019-02-24T08:30:55.343Z,33.40
2019-02-24T08:33:23.755Z,33.00
2019-02-24T08:35:52.478Z,31.80
2019-02-24T08:38:20.914Z,31.80
2019-02-24T08:40:49.337Z,31.90
2019-02-24T08:43:17.754Z,31.50
2019-02-24T08:45:46.177Z,30.80
2019-02-24T08:48:14.760Z,30.20
2019-02-24T08:50:43.247Z,30.00
2019-02-24T08:53:11.661Z,29.20
2019-02-24T08:55:40.086Z,29.80
2019-02-24T08:58:08.502Z,30.10
2019-02-24T09:00:36.987Z,29.20
2019-02-24T09:03:05.476Z,28.10
2019-02-24T09:05:33.930Z,26.30
2019-02-24T09:08:02.550Z,23.90
2019-02-24T09:10:31.226Z,21.00
2019-02-24T09:12:59.754Z,16.30
2019-02-24T09:15:28.218Z,11.80
2019-02-24T09:17:56.648Z,8.30
2019-02-24T09:20:25.058Z,6.50
2019-02-24T09:22:53.473Z,1.60
2019-02-24T09:25:21.883Z,1.00
2019-02-24T09:27:50.423Z,1.00
2019-02-24T09:30:19.018Z,1.00
2019-02-24T09:32:47.450Z,1.00
2019-02-24T09:35:15.870Z,1.00
2019-02-24T09:40:12.908Z,1.00
2019-02-24T09:42:41.480Z,1.00
2019-02-24T17:44:45.034Z,19.80
2019-02-24T17:47:13.470Z,20.10
2019-02-24T17:49:41.979Z,21.10
2019-02-24T17:52:10.653Z,21.60
2019-02-24T17:54:39.078Z,22.10
2019-02-24T17:57:07.773Z,22.30
2019-02-24T17:59:40.518Z,22.60
2019-02-24T18:02:06.659Z,22.40
2019-02-24T18:04:35.094Z,22.70
2019-02-24T18:07:03.787Z,23.00
2019-02-24T18:09:32.257Z,23.00
2019-02-24T18:12:00.673Z,23.20
2019-02-24T18:14:29.111Z,23.60
2019-02-24T18:16:57.530Z,24.00
2019-02-24T18:19:25.966Z,23.70
2019-02-24T18:21:54.403Z,23.60
2019-02-24T18:24:22.845Z,23.30
2019-02-24T18:26:51.271Z,23.30
2019-02-24T18:29:19.810Z,23.30
2019-02-24T18:31:48.238Z,23.40
2019-02-24T18:34:16.948Z,23.30
2019-02-24T18:36:45.577Z,23.50
2019-02-24T18:39:14.066Z,23.30
2019-02-24T18:41:42.604Z,23.30
2019-02-24T18:44:11.112Z,23.20
2019-02-24T18:46:39.520Z,23.50
2019-02-24T18:49:07.947Z,23.50
2019-02-24T18:51:36.417Z,23.70
2019-02-24T18:54:04.852Z,24.00
2019-02-24T18:56:33.290Z,24.10
2019-02-24T18:59:01.791Z,24.40
2019-02-24T19:01:30.222Z,24.50
2019-02-24T19:03:58.651Z,24.60
2019-02-24T19:06:27.082Z,24.60
2019-02-24T19:08:55.509Z,24.80
2019-02-24T19:11:23.947Z,24.80
2019-02-24T19:13:52.367Z,24.90
2019-02-24T19:16:21.066Z,24.80
2019-02-24T19:18:49.782Z,25.20
2019-02-24T19:21:18.215Z,25.00
2019-02-24T19:23:46.655Z,25.20
2019-02-24T19:26:15.088Z,25.40
2019-02-24T19:28:43.525Z,25.40
2019-02-24T19:31:12.188Z,25.10
2019-02-24T19:33:40.614Z,25.70
2019-02-24T19:36:09.051Z,25.80
2019-02-24T19:38:37.489Z,25.70
2019-02-24T19:41:05.923Z,26.10
2019-02-24T19:43:34.598Z,26.10
2019-02-24T19:46:03.023Z,26.10
2019-02-24T19:48:31.445Z,26.40
2019-02-24T19:50:59.869Z,26.40
2019-02-24T19:53:28.295Z,26.70
2019-02-24T19:55:56.734Z,27.10
2019-02-24T19:58:25.149Z,27.80
2019-02-24T20:00:55.501Z,28.20
2019-02-24T20:03:23.969Z,27.80
2019-02-24T20:05:52.595Z,27.50
2019-02-24T20:08:21.073Z,27.90
2019-02-24T20:10:49.499Z,27.90
2019-02-24T20:13:18.164Z,28.00
2019-02-24T20:15:46.598Z,28.30
2019-02-24T20:18:15.022Z,28.50
2019-02-24T20:20:43.612Z,28.50
2019-02-24T20:23:12.032Z,28.90
2019-02-24T20:25:40.482Z,28.90
2019-02-24T20:28:08.902Z,29.10
2019-02-24T20:30:37.613Z,29.10
2019-02-24T20:33:06.076Z,28.90
2019-02-24T20:35:34.511Z,29.00
2019-02-24T20:38:02.934Z,28.90
2019-02-24T20:40:31.346Z,28.90
2019-02-24T20:42:59.996Z,29.10
2019-02-24T20:45:29.403Z,28.50
2019-02-24T20:47:57.967Z,28.50
2019-02-24T20:50:32.210Z,28.50
2019-02-24T20:53:00.634Z,28.40
2019-02-24T20:55:29.058Z,28.50
2019-02-24T20:57:57.730Z,28.70
2019-02-24T21:00:31.853Z,28.70
2019-02-24T21:03:01.461Z,28.80
2019-02-24T21:05:30.504Z,28.80
2019-02-24T21:07:58.988Z,29.40
2019-02-24T21:10:27.388Z,29.20
2019-02-24T21:12:55.806Z,29.40
2019-02-24T21:15:24.217Z,29.60
2019-02-24T21:17:52.653Z,30.00
2019-02-24T21:20:23.975Z,29.80
2019-02-24T21:22:52.618Z,29.70
2019-02-24T21:25:21.065Z,30.00
2019-02-24T21:27:49.488Z,30.10
2019-02-24T21:30:19.186Z,30.20
2019-02-24T21:32:47.700Z,30.30
2019-02-24T21:35:17.407Z,30.10
2019-02-24T21:37:46.045Z,30.40
2019-02-24T21:40:16.106Z,30.80
2019-02-24T21:42:44.526Z,31.40
2019-02-24T21:45:20.942Z,31.40
2019-02-24T21:47:49.373Z,31.80
2019-02-24T21:50:17.929Z,32.10
2019-02-24T21:52:46.355Z,32.30
2019-02-24T21:55:14.913Z,32.60
2019-02-24T21:57:43.618Z,32.80
2019-02-24T22:00:20.883Z,33.00
2019-02-24T22:02:49.337Z,33.30
2019-02-24T22:05:17.749Z,34.00
2019-02-24T22:07:46.173Z,34.70
2019-02-24T22:10:17.268Z,34.60
2019-02-24T22:12:45.686Z,34.70
2019-02-24T22:15:17.178Z,34.60
2019-02-24T22:17:45.606Z,34.60
2019-02-24T22:20:15.730Z,34.80
2019-02-24T22:22:44.557Z,35.70
2019-02-24T22:25:14.449Z,35.70
2019-02-24T22:27:43.119Z,35.80
2019-02-24T22:30:17.576Z,36.10
2019-02-24T22:32:45.992Z,36.60
2019-02-24T22:35:14.406Z,37.50
2019-02-24T22:37:42.826Z,37.40
2019-02-24T22:40:16.440Z,37.90
2019-02-24T22:42:44.857Z,37.70
2019-02-24T22:45:20.520Z,38.30
2019-02-24T22:47:48.937Z,37.80
2019-02-24T22:50:17.487Z,38.30
2019-02-24T22:52:46.699Z,38.70
2019-02-24T22:55:16.598Z,38.80
2019-02-24T22:57:45.103Z,39.50
2019-02-24T23:00:26.660Z,39.50
2019-02-24T23:02:55.296Z,39.80
2019-02-24T23:05:23.707Z,40.80
2019-02-24T23:07:52.125Z,41.20
2019-02-24T23:10:20.543Z,41.80
2019-02-24T23:12:48.976Z,43.50
2019-02-24T23:15:17.448Z,43.90
2019-02-24T23:17:45.869Z,45.00
2019-02-24T23:20:14.283Z,45.60
2019-02-24T23:22:42.947Z,46.00
2019-02-24T23:25:11.354Z,46.40
2019-02-24T23:27:39.811Z,47.10
2019-02-24T23:30:10.004Z,47.30
2019-02-24T23:32:38.653Z,48.50
2019-02-24T23:35:07.304Z,49.50
2019-02-24T23:37:35.761Z,50.20
2019-02-24T23:40:06.921Z,50.70
2019-02-24T23:42:35.325Z,51.60
2019-02-24T23:45:10.195Z,53.10
2019-02-24T23:47:34.845Z,53.80
2019-02-24T23:50:04.129Z,55.10
2019-02-24T23:52:32.542Z,56.60
2019-02-24T23:55:00.967Z,56.80
2019-02-24T23:57:29.378Z,58.10
2019-02-24T23:59:58.065Z,58.90
